Bow Heron — DYTN — position and weather

sailwx.info

Track history (hours):
 
Tides and Currents Weather Stations Pressure Air Temp Water Temp Dewpoint Dewpoint Depression Visibility Wind Speed Wind Dir Waves Ship Positions

Bow Heron

Last reported at 2017-Jun-25 00:30 UTC. Time now 2017-Jun-26 03:53 UTC.
Position N 33°57' W 076°39'.

Length 174 m; draft 10.9 m.

Type: Ship (hazmat cat B). MMSI: 548779000.

Date/timePositionNaut miles runAvg speedWind from/ knotsBaromVisibWave heightAir tempDewpointWater temp
2017-Jun-25 00:30N 33°57' W 076°39'3012.7
2017-Jun-24 22:07N 34°16' W 076°11'2212.8
2017-Jun-24 20:25N 34°29' W 075°49'512.8
2017-Jun-24 20:00N 34°32' W 075°44'36611.9
2017-Jun-23 13:11N 40°27' W 073°50'510.4
2017-Jun-23 12:44N 40°27' W 073°56'210.4
2017-Jun-23 12:30N 40°29' W 073°59'810.0
2017-Jun-23 11:43N 40°30' W 074°09'5 4.0
2017-Jun-23 10:30N 40°31' W 074°15'1 0.1
2017-Jun-22 21:56N 40°33' W 074°15'3 4.7
2017-Jun-22 21:23N 40°35' W 074°13'2 5.1
2017-Jun-22 21:00N 40°36' W 074°12'3 5.3
2017-Jun-22 20:30N 40°39' W 074°11'3 7.0
2017-Jun-22 20:01N 40°39' W 074°06'2 4.2
2017-Jun-22 19:30N 40°38' W 074°03'0 0.7
2017-Jun-22 18:58N 40°38' W 074°04'0 0.1
2017-Jun-22 18:28N 40°38' W 074°04'0 0.1
2017-Jun-22 17:58N 40°38' W 074°04'0 0.0
2017-Jun-22 17:28N 40°38' W 074°04'0 0.0
2017-Jun-22 16:58N 40°38' W 074°04'0 0.0
2017-Jun-22 16:28N 40°38' W 074°04'0 0.0
2017-Jun-22 15:58N 40°38' W 074°04'0 0.0
2017-Jun-22 15:28N 40°38' W 074°04'0 0.0
2017-Jun-22 14:58N 40°38' W 074°04'0 0.0
2017-Jun-22 14:28N 40°38' W 074°04'0 0.0
2017-Jun-22 13:28N 40°38' W 074°04'0 0.3
2017-Jun-22 12:58N 40°38' W 074°04'0 0.2
2017-Jun-22 12:30N 40°38' W 074°04'2 4.6
2017-Jun-22 12:00N 40°36' W 074°02'4 8.9
2017-Jun-22 11:30N 40°32' W 074°01'610.8
2017-Jun-22 11:00N 40°29' W 073°54'5 9.7
2017-Jun-22 10:30N 40°27' W 073°49'5 9.5
2017-Jun-22 10:01N 40°24' W 073°44'611.6
2017-Jun-22 09:31N 40°21' W 073°37'610.2
2017-Jun-22 08:57N 40°17' W 073°32'714.4
2017-Jun-22 08:26N 40°13' W 073°24'614.4
2017-Jun-22 08:00N 40°09' W 073°17'  
2017-Jun-16 11:00N 39°57' W 030°21'1013.9
2017-Jun-16 10:16N 39°56' W 030°08'614.2
2017-Jun-16 09:52N 39°55' W 029°60'614.1
2017-Jun-16 09:28N 39°55' W 029°53'714.1
2017-Jun-16 09:00N 39°54' W 029°44'913.8
2017-Jun-16 08:19N 39°53' W 029°32'414.1
2017-Jun-16 08:00N 39°52' W 029°26'714.1
2017-Jun-16 07:30N 39°51' W 029°17'714.4
2017-Jun-16 07:00N 39°50' W 029°08'714.3
2017-Jun-16 06:30N 39°49' W 028°59'714.2
2017-Jun-16 06:00N 39°48' W 028°50'714.4
2017-Jun-16 05:30N 39°47' W 028°40'714.1
2017-Jun-16 05:00N 39°46' W 028°31'1014.3
2017-Jun-16 04:20N 39°45' W 028°19'514.0
2017-Jun-16 04:00N 39°45' W 028°13'814.4
2017-Jun-16 03:28N 39°44' W 028°03'714.3
2017-Jun-16 02:59N 39°43' W 027°54'714.0
2017-Jun-16 02:30N 39°42' W 027°45'714.4
2017-Jun-16 02:00N 39°41' W 027°36'814.8
2017-Jun-16 01:28N 39°40' W 027°26'3614.9
2017-Jun-15 23:02N 39°35' W 026°39'14814.1
2017-Jun-15 12:32N 39°12' W 023°30'  
Track history (hours):
 
Tides and Currents Weather Stations Pressure Air Temp Water Temp Dewpoint Dewpoint Depression Visibility Wind Speed Wind Dir Waves Ship Positions

Bow Heron

Last reported at 2017-Jun-25 00:30 UTC. Time now 2017-Jun-26 03:53 UTC.
Position N 33°57' W 076°39'.

Length 174 m; draft 10.9 m.

Type: Ship (hazmat cat B). MMSI: 548779000.

Date/timePositionNaut miles runAvg speedWind from/ knotsBaromVisibWave heightAir tempDewpointWater temp
2017-Jun-25 00:30N 33°57' W 076°39'3012.7
2017-Jun-24 22:07N 34°16' W 076°11'2212.8
2017-Jun-24 20:25N 34°29' W 075°49'512.8
2017-Jun-24 20:00N 34°32' W 075°44'36611.9
2017-Jun-23 13:11N 40°27' W 073°50'510.4
2017-Jun-23 12:44N 40°27' W 073°56'210.4
2017-Jun-23 12:30N 40°29' W 073°59'810.0
2017-Jun-23 11:43N 40°30' W 074°09'5 4.0
2017-Jun-23 10:30N 40°31' W 074°15'1 0.1
2017-Jun-22 21:56N 40°33' W 074°15'3 4.7
2017-Jun-22 21:23N 40°35' W 074°13'2 5.1
2017-Jun-22 21:00N 40°36' W 074°12'3 5.3
2017-Jun-22 20:30N 40°39' W 074°11'3 7.0
2017-Jun-22 20:01N 40°39' W 074°06'2 4.2
2017-Jun-22 19:30N 40°38' W 074°03'0 0.7
2017-Jun-22 18:58N 40°38' W 074°04'0 0.1
2017-Jun-22 18:28N 40°38' W 074°04'0 0.1
2017-Jun-22 17:58N 40°38' W 074°04'0 0.0
2017-Jun-22 17:28N 40°38' W 074°04'0 0.0
2017-Jun-22 16:58N 40°38' W 074°04'0 0.0
2017-Jun-22 16:28N 40°38' W 074°04'0 0.0
2017-Jun-22 15:58N 40°38' W 074°04'0 0.0
2017-Jun-22 15:28N 40°38' W 074°04'0 0.0
2017-Jun-22 14:58N 40°38' W 074°04'0 0.0
2017-Jun-22 14:28N 40°38' W 074°04'0 0.0
2017-Jun-22 13:28N 40°38' W 074°04'0 0.3
2017-Jun-22 12:58N 40°38' W 074°04'0 0.2
2017-Jun-22 12:30N 40°38' W 074°04'2 4.6
2017-Jun-22 12:00N 40°36' W 074°02'4 8.9
2017-Jun-22 11:30N 40°32' W 074°01'610.8
2017-Jun-22 11:00N 40°29' W 073°54'5 9.7
2017-Jun-22 10:30N 40°27' W 073°49'5 9.5
2017-Jun-22 10:01N 40°24' W 073°44'611.6
2017-Jun-22 09:31N 40°21' W 073°37'610.2
2017-Jun-22 08:57N 40°17' W 073°32'714.4
2017-Jun-22 08:26N 40°13' W 073°24'614.4
2017-Jun-22 08:00N 40°09' W 073°17'  
2017-Jun-16 11:00N 39°57' W 030°21'1013.9
2017-Jun-16 10:16N 39°56' W 030°08'614.2
2017-Jun-16 09:52N 39°55' W 029°60'614.1
2017-Jun-16 09:28N 39°55' W 029°53'714.1
2017-Jun-16 09:00N 39°54' W 029°44'913.8
2017-Jun-16 08:19N 39°53' W 029°32'414.1
2017-Jun-16 08:00N 39°52' W 029°26'714.1
2017-Jun-16 07:30N 39°51' W 029°17'714.4
2017-Jun-16 07:00N 39°50' W 029°08'714.3
2017-Jun-16 06:30N 39°49' W 028°59'714.2
2017-Jun-16 06:00N 39°48' W 028°50'714.4
2017-Jun-16 05:30N 39°47' W 028°40'714.1
2017-Jun-16 05:00N 39°46' W 028°31'1014.3
2017-Jun-16 04:20N 39°45' W 028°19'514.0
2017-Jun-16 04:00N 39°45' W 028°13'814.4
2017-Jun-16 03:28N 39°44' W 028°03'714.3
2017-Jun-16 02:59N 39°43' W 027°54'714.0
2017-Jun-16 02:30N 39°42' W 027°45'714.4
2017-Jun-16 02:00N 39°41' W 027°36'814.8
2017-Jun-16 01:28N 39°40' W 027°26'3614.9
2017-Jun-15 23:02N 39°35' W 026°39'14814.1
2017-Jun-15 12:32N 39°12' W 023°30'  

Dump ship's entire track history